CW3847 La Orotava ES current weather conditions

sailwx.info

Wind from 184 at 0 knots gusting 2

Air temperature 12.2° C
Dewpoint 10.8° C

Last reported at 2015-Jan-31 02:47 UTC.
Time now 2015-Jan-31 03:58 UTC

Location: N 28°23' W 016°31'.
View on Google Maps.

See reports from other nearby stations

  
Tides and Currents Weather Stations Pressure Air Temp Water Temp Dewpoint Dewpoint Depression Visibility Wind Speed Wind Dir Waves Ship Positions
date/time (UTC)wind fromknots sea level pressurealtimeterstation pressurevisibilityair tempwater tempwave heightnotes
2015-Jan-31 02:47 184 0 gusting 2 12.2
2015-Jan-31 02:37 186 2 gusting 2 12.2
2015-Jan-31 02:17 173 1 gusting 2 12.2
2015-Jan-31 01:57 212 2 gusting 2 12.2
2015-Jan-31 01:47 173 1 gusting 3 12.2
2015-Jan-31 01:27 170 2 gusting 3 12.2
2015-Jan-31 01:17 176 1 gusting 2 12.2
2015-Jan-31 00:57 172 1 gusting 4 12.2
2015-Jan-31 00:37 171 3 gusting 4 12.2
2015-Jan-30 23:57 172 2 gusting 3 12.2
2015-Jan-30 23:47 175 2 gusting 3 12.8
2015-Jan-30 23:37 179 2 gusting 2 12.8
2015-Jan-30 23:17 191 12.8
2015-Jan-30 23:07 182 1 gusting 2 12.8
2015-Jan-30 22:57 177 2 gusting 3 12.8
2015-Jan-30 22:47 165 3 gusting 5 12.8
2015-Jan-30 22:37 179 1 gusting 2 12.8
2015-Jan-30 22:27 170 1 gusting 3 12.8
2015-Jan-30 22:17 170 3 gusting 4 12.8
2015-Jan-30 22:07 184 1 gusting 3 12.8
2015-Jan-30 21:57 182 1 gusting 3 12.8
2015-Jan-30 21:47 182 2 gusting 2 13.3
2015-Jan-30 21:37 172 1 gusting 1 13.3
2015-Jan-30 21:27 172 13.3
2015-Jan-30 21:17 171 1 gusting 1 13.3
2015-Jan-30 21:07 178 2 gusting 3 13.3
2015-Jan-30 20:57 151 0 gusting 2 13.3
2015-Jan-30 20:47 200 0 gusting 1 13.3
2015-Jan-30 20:27 227 13.9
2015-Jan-30 19:17 167 14.4
2015-Jan-30 19:07 174 0 gusting 1 14.4
2015-Jan-30 18:57 072 14.4
2015-Jan-30 18:37 339 2 gusting 2 14.4
2015-Jan-30 18:27 039 0 gusting 0 13.9
2015-Jan-30 17:57 024 1 gusting 2 14.4
2015-Jan-30 17:47 034 2 gusting 2 14.4
2015-Jan-30 17:37 011 1 gusting 2 14.4
2015-Jan-30 17:27 055 2 gusting 3 14.4
2015-Jan-30 17:17 355 2 gusting 4 14.4
2015-Jan-30 16:57 021 2 gusting 2 14.4
2015-Jan-30 16:47 344 2 gusting 3 14.4
2015-Jan-30 16:37 022 0 gusting 1 14.4
2015-Jan-30 16:27 043 1 gusting 2 14.4
2015-Jan-30 16:17 009 0 gusting 2 15.0
2015-Jan-30 16:07 011 1 gusting 2 14.4
2015-Jan-30 15:57 360 1 gusting 2 15.0
2015-Jan-30 15:47 032 0 gusting 2 15.0
2015-Jan-30 15:37 350 2 gusting 2 15.0
2015-Jan-30 15:27 010 2 gusting 2 15.0
2015-Jan-30 15:07 349 2 gusting 2 15.0
2015-Jan-30 14:57 010 1 gusting 2 15.0
2015-Jan-30 14:47 355 2 gusting 2 15.0
2015-Jan-30 14:37 017 1 gusting 2 15.0
2015-Jan-30 14:27 355 2 gusting 2 15.0
2015-Jan-30 14:17 028 1 gusting 5 15.0
2015-Jan-30 14:07 046 1 gusting 3 15.0
2015-Jan-30 13:17 346 1 gusting 2 15.0
2015-Jan-30 13:07 355 1 gusting 2 15.6
2015-Jan-30 12:47 355 2 gusting 2 15.6
2015-Jan-30 12:37 005 3 gusting 5 15.6
2015-Jan-30 11:57 010 15.6
2015-Jan-30 11:47 350 2 gusting 3 15.0
2015-Jan-30 11:07 340 1 gusting 2 15.0
2015-Jan-30 10:57 047 2 gusting 3 15.6
2015-Jan-30 10:37 012 2 gusting 3 15.6
2015-Jan-30 10:27 316 1 gusting 2 15.6
2015-Jan-30 10:17 315 15.0
2015-Jan-30 10:07 337 0 gusting 2 15.0
2015-Jan-30 09:47 246 2 gusting 2 15.6
2015-Jan-30 09:37 205 1 gusting 2 15.0
2015-Jan-30 09:27 204 14.4
2015-Jan-30 09:17 204 13.3
2015-Jan-30 09:07 175 0 gusting 1 12.8
2015-Jan-30 08:37 164 3 gusting 4 12.2
2015-Jan-30 08:27 173 2 gusting 5 12.2
2015-Jan-30 08:07 164 0 gusting 2 12.8
2015-Jan-30 07:57 158 0 gusting 2 12.8
2015-Jan-30 07:47 128 0 gusting 2 12.8
2015-Jan-30 07:37 187 1 gusting 2 12.8
2015-Jan-30 07:27 169 0 gusting 4 12.8
2015-Jan-30 06:47 057 13.3
2015-Jan-30 06:37 139 1 gusting 5 13.3
2015-Jan-30 06:27 159 3 gusting 6 12.8
2015-Jan-30 06:17 169 5 gusting 5 12.8
2015-Jan-30 06:07 185 1 gusting 2 13.3
2015-Jan-30 05:47 161 2 gusting 3 12.8
2015-Jan-30 05:37 207 1 gusting 2 12.2
2015-Jan-30 05:27 169 2 gusting 3 12.2
2015-Jan-30 04:47 163 1 gusting 4 12.8
2015-Jan-30 04:37 168 1 gusting 2 12.8
2015-Jan-30 04:27 175 2 gusting 2 13.3
2015-Jan-30 04:17 287 0 gusting 1 13.3
2015-Jan-30 04:07 290 13.3
2015-Jan-30 03:57 217 13.3
2015-Jan-30 03:47 176 1 gusting 3 13.3
2015-Jan-30 03:37 198 13.3
2015-Jan-30 03:17 104 0 gusting 1 13.9
2015-Jan-30 03:07 149 2 gusting 2 13.9
2015-Jan-30 02:57 077 3 gusting 3 13.9
2015-Jan-30 02:37 117 6 gusting 6 12.8
2015-Jan-30 02:27 180 2 gusting 2 12.2
2015-Jan-30 02:17 142 1 gusting 2 12.2
2015-Jan-30 02:07 067 2 gusting 4 12.8
2015-Jan-30 01:47 147 2 gusting 3 12.2
2015-Jan-30 01:37 168 3 gusting 4 11.7
2015-Jan-30 01:27 175 6 gusting 6 12.2
2015-Jan-30 01:17 162 1 gusting 4 12.2
2015-Jan-30 01:07 144 1 gusting 5 12.8
2015-Jan-30 00:47 117 0 gusting 2 13.3
2015-Jan-30 00:37 128 2 gusting 2 13.3
2015-Jan-30 00:07 103 4 gusting 6 13.3
2015-Jan-29 23:57 092 2 gusting 6 13.3
2015-Jan-29 23:47 153 2 gusting 5 13.3
2015-Jan-29 23:37 128 2 gusting 2 13.3
2015-Jan-29 23:17 062 0 gusting 1 13.3
2015-Jan-29 22:47 174 4 gusting 5 13.3
2015-Jan-29 22:37 173 4 gusting 6 12.8
2015-Jan-29 21:37 148 2 gusting 3 12.8
2015-Jan-29 21:27 188 0 gusting 0 12.8
2015-Jan-29 21:17 033 12.8
2015-Jan-29 20:57 005 1 gusting 1 13.3
2015-Jan-29 20:47 061 3 gusting 4 13.3
2015-Jan-29 20:17 157 4 gusting 7 12.2
2015-Jan-29 19:57 165 1 gusting 4 12.8
2015-Jan-29 19:47 182 2 gusting 4 12.8
2015-Jan-29 19:37 150 1 gusting 4 13.3
2015-Jan-29 19:17 223 0 gusting 1 13.9
2015-Jan-29 19:07 213 0 gusting 2 13.9
2015-Jan-29 18:57 244 1 gusting 2 14.4
2015-Jan-29 18:47 054 0 gusting 1 14.4
2015-Jan-29 18:27 054 1 gusting 2 14.4
2015-Jan-29 18:17 040 1 gusting 2 14.4
2015-Jan-29 18:07 092 0 gusting 2 13.9
2015-Jan-29 17:57 074 0 gusting 2 13.9
2015-Jan-29 17:47 056 2 gusting 3 13.9
2015-Jan-29 17:37 022 1 gusting 2 14.4
2015-Jan-29 17:07 032 0 gusting 2 14.4
2015-Jan-29 16:57 054 1 gusting 1 14.4
2015-Jan-29 16:27 052 4 gusting 8 14.4
2015-Jan-29 16:17 027 2 gusting 3 14.4
2015-Jan-29 16:07 360 2 gusting 5 14.4
2015-Jan-29 15:57 050 4 gusting 7 14.4
2015-Jan-29 15:47 072 6 gusting 7 15.0
2015-Jan-29 15:37 080 2 gusting 6 15.0
2015-Jan-29 15:27 005 3 gusting 4 15.0
2015-Jan-29 15:17 045 1 gusting 6 15.0
2015-Jan-29 14:57 056 2 gusting 5 15.6
2015-Jan-29 14:37 040 0 gusting 2 15.0
2015-Jan-29 14:27 083 2 gusting 2 15.0
2015-Jan-29 13:47 031 2 gusting 6 14.4
2015-Jan-29 13:37 355 7 gusting 7 14.4
2015-Jan-29 13:27 032 1 gusting 3 14.4
2015-Jan-29 13:17 067 2 gusting 2 14.4
2015-Jan-29 12:47 005 2 gusting 6 13.9
2015-Jan-29 12:27 024 3 gusting 6 13.9
2015-Jan-29 12:17 038 6 gusting 6 13.3
2015-Jan-29 12:07 026 2 gusting 5 13.9
2015-Jan-29 11:57 310 1 gusting 2 13.9
2015-Jan-29 11:47 331 2 gusting 3 13.9
2015-Jan-29 11:37 348 2 gusting 3 13.9
2015-Jan-29 11:27 044 4 gusting 8 14.4
2015-Jan-29 11:17 010 5 gusting 6 15.0
2015-Jan-29 11:07 022 14.4
2015-Jan-29 10:37 022 2 gusting 4 13.3
2015-Jan-29 10:27 360 2 gusting 2 13.3
2015-Jan-29 10:07 009 6 gusting 6 14.4
2015-Jan-29 09:57 296 2 gusting 2 14.4
2015-Jan-29 09:47 025 0 gusting 2 14.4
2015-Jan-29 09:37 341 1 gusting 2 15.0
2015-Jan-29 09:27 175 0 gusting 5 14.4
2015-Jan-29 09:17 179 1 gusting 2 13.9
2015-Jan-29 09:07 162 1 gusting 2 13.3
2015-Jan-29 08:57 159 1 gusting 6 13.3
2015-Jan-29 08:47 151 6 gusting 7 12.8
2015-Jan-29 08:27 209 1 gusting 4 12.2
2015-Jan-29 08:17 159 3 gusting 6 11.7
2015-Jan-29 08:07 142 4 gusting 6 12.2
2015-Jan-29 07:47 159 2 gusting 6 12.8
2015-Jan-29 07:37 127 5 gusting 5 12.2
2015-Jan-29 07:17 146 2 gusting 3 11.7
2015-Jan-29 07:07 161 4 gusting 6 11.1
2015-Jan-29 06:57 148 7 gusting 8 11.1
2015-Jan-29 06:47 127 2 gusting 6 11.7
2015-Jan-29 05:47 148 1 gusting 1 12.8
2015-Jan-29 05:27 118 1 gusting 2 12.8
2015-Jan-29 05:17 154 5 gusting 5 12.8
2015-Jan-29 04:57 134 7 gusting 9 12.2
2015-Jan-29 04:47 155 2 gusting 8 12.8
2015-Jan-29 04:37 109 4 gusting 6 12.8
2015-Jan-29 04:27 140 2 gusting 5 12.8
2015-Jan-29 04:17 149 3 gusting 4 12.8
2015-Jan-29 04:07 153 12.8
2015-Jan-29 03:57 154 1 gusting 2 12.8
2015-Jan-29 03:47 159 1 gusting 3 12.8
2015-Jan-29 03:37 160 3 gusting 3 12.8